Time;durP1;ratioP1;P1;durP2;ratioP2;P2;SDS_P1;SDS_P2;PMS_P1;PMS_P2;Temp;Humidity;BMP_temperature;BMP_pressure;BME280_temperature;BME280_humidity;BME280_pressure;Samples;Min_cycle;Max_cycle;Signal;HPM_P1;HPM_P2
2022/04/09 00:00:24;;;;;;;111.47;56.85;;;;;;;;;;5053156;28;20172;-62
2022/04/09 00:02:50;;;;;;;101.18;48.33;;;;;;;;;;5053228;28;20247;-62
2022/04/09 00:05:16;;;;;;;100.07;46.67;;;;;;;;;;5053161;28;20703;-62
2022/04/09 00:07:43;;;;;;;105.17;47.67;;;;;;;;;;5053290;28;20230;-62
2022/04/09 00:10:10;;;;;;;112.22;52.75;;;;;;;;;;5052767;28;20480;-61
2022/04/09 00:12:36;;;;;;;114.63;52.80;;;;;;;;;;5053187;28;20160;-62
2022/04/09 00:15:03;;;;;;;114.55;51.72;;;;;;;;;;5053082;28;20208;-60
2022/04/09 00:17:29;;;;;;;106.15;47.40;;;;;;;;;;5053025;28;20639;-62
2022/04/09 00:19:55;;;;;;;106.93;50.70;;;;;;;;;;5052940;28;20179;-62
2022/04/09 00:22:20;;;;;;;110.63;50.45;;;;;;;;;;5052566;28;20981;-62
2022/04/09 00:24:46;;;;;;;112.80;50.70;;;;;;;;;;5051936;28;20207;-62
2022/04/09 00:27:13;;;;;;;112.13;50.33;;;;;;;;;;5052781;28;20437;-62
2022/04/09 00:29:39;;;;;;;114.90;52.55;;;;;;;;;;5052722;28;20176;-61
2022/04/09 00:32:05;;;;;;;108.60;49.40;;;;;;;;;;5052516;28;20179;-62
2022/04/09 00:34:31;;;;;;;107.95;49.55;;;;;;;;;;5052674;28;20469;-62
2022/04/09 00:36:57;;;;;;;105.67;47.77;;;;;;;;;;5051949;28;20200;-63
2022/04/09 00:39:24;;;;;;;106.27;47.00;;;;;;;;;;5052414;28;20402;-62
2022/04/09 00:41:50;;;;;;;101.90;45.90;;;;;;;;;;5052207;28;20932;-62
2022/04/09 00:44:17;;;;;;;108.65;49.47;;;;;;;;;;5052338;28;20212;-62
2022/04/09 00:46:43;;;;;;;107.85;48.05;;;;;;;;;;5053765;28;20180;-62
2022/04/09 00:49:09;;;;;;;111.82;51.03;;;;;;;;;;5052486;28;20306;-62
2022/04/09 00:51:37;;;;;;;108.13;49.15;;;;;;;;;;5050913;28;20194;-62
2022/04/09 00:54:04;;;;;;;101.53;45.78;;;;;;;;;;5052536;28;20200;-63
2022/04/09 00:56:30;;;;;;;100.00;46.22;;;;;;;;;;5052203;28;20175;-63
2022/04/09 00:58:56;;;;;;;101.13;44.38;;;;;;;;;;5052255;28;20187;-63
2022/04/09 01:01:23;;;;;;;91.13;41.90;;;;;;;;;;5051961;28;20551;-62
2022/04/09 01:03:52;;;;;;;87.07;43.20;;;;;;;;;;5052086;28;20582;-63
2022/04/09 01:06:18;;;;;;;91.88;45.70;;;;;;;;;;5051623;28;20164;-63
2022/04/09 01:08:44;;;;;;;96.20;44.97;;;;;;;;;;5052152;28;20255;-62
2022/04/09 01:11:14;;;;;;;103.90;48.53;;;;;;;;;;5051875;28;20191;-63
2022/04/09 01:13:40;;;;;;;97.32;44.75;;;;;;;;;;5052056;28;20191;-63
2022/04/09 01:16:06;;;;;;;108.28;50.35;;;;;;;;;;5052218;28;20547;-63
2022/04/09 01:18:33;;;;;;;102.60;47.55;;;;;;;;;;5051989;28;20203;-63
2022/04/09 01:20:59;;;;;;;105.30;47.60;;;;;;;;;;5051756;28;20180;-63
2022/04/09 01:23:26;;;;;;;102.90;47.38;;;;;;;;;;5051639;28;20175;-62
2022/04/09 01:25:52;;;;;;;103.75;48.35;;;;;;;;;;5050329;28;20180;-62
2022/04/09 01:28:18;;;;;;;98.88;45.13;;;;;;;;;;5051699;28;20179;-63
2022/04/09 01:30:45;;;;;;;101.53;46.77;;;;;;;;;;5051405;28;20168;-63
2022/04/09 01:33:15;;;;;;;107.03;48.50;;;;;;;;;;5051781;28;20548;-63
2022/04/09 01:35:41;;;;;;;108.03;48.58;;;;;;;;;;5051335;28;20171;-63
2022/04/09 01:38:07;;;;;;;109.07;47.97;;;;;;;;;;5051708;28;20707;-63
2022/04/09 01:40:33;;;;;;;101.28;46.35;;;;;;;;;;5051317;28;20405;-63
2022/04/09 01:42:59;;;;;;;112.00;49.00;;;;;;;;;;5051450;28;20187;-63
2022/04/09 01:45:27;;;;;;;113.03;50.05;;;;;;;;;;5051239;28;20521;-63
2022/04/09 01:47:53;;;;;;;113.28;50.05;;;;;;;;;;5051641;28;20236;-63
2022/04/09 01:50:21;;;;;;;114.97;58.97;;;;;;;;;;5051298;28;20178;-63
2022/04/09 01:52:47;;;;;;;108.75;46.63;;;;;;;;;;5051266;28;20186;-63
2022/04/09 01:55:13;;;;;;;103.50;45.43;;;;;;;;;;5051250;28;20196;-62
2022/04/09 01:57:39;;;;;;;107.10;46.75;;;;;;;;;;5051372;28;20494;-63
2022/04/09 02:00:07;;;;;;;106.28;47.63;;;;;;;;;;5051353;28;20184;-63
2022/04/09 02:02:33;;;;;;;100.38;44.75;;;;;;;;;;5051341;28;20200;-63
2022/04/09 02:04:59;;;;;;;104.40;45.97;;;;;;;;;;5051103;28;20238;-63
2022/04/09 02:07:27;;;;;;;103.00;45.43;;;;;;;;;;5051116;28;20894;-63
2022/04/09 02:09:53;;;;;;;102.43;44.80;;;;;;;;;;5051190;28;20758;-63
2022/04/09 02:12:19;;;;;;;104.10;48.17;;;;;;;;;;5050989;28;20183;-64
2022/04/09 02:14:45;;;;;;;100.60;45.17;;;;;;;;;;5051325;28;20435;-63
2022/04/09 02:17:11;;;;;;;99.25;44.05;;;;;;;;;;5051092;28;20407;-62
2022/04/09 02:19:38;;;;;;;108.78;49.55;;;;;;;;;;5051222;28;20187;-63
2022/04/09 02:22:04;;;;;;;103.20;47.17;;;;;;;;;;5050931;28;20672;-63
2022/04/09 02:24:30;;;;;;;103.77;47.00;;;;;;;;;;5050804;28;20208;-63
2022/04/09 02:26:56;;;;;;;105.80;48.70;;;;;;;;;;5050948;28;20913;-63
2022/04/09 02:29:22;;;;;;;103.93;47.28;;;;;;;;;;5050784;28;20184;-62
2022/04/09 02:31:48;;;;;;;100.00;46.67;;;;;;;;;;5050953;28;20252;-63
2022/04/09 02:34:14;;;;;;;105.80;46.75;;;;;;;;;;5050858;28;20454;-63
2022/04/09 02:36:40;;;;;;;103.63;46.65;;;;;;;;;;5050587;28;20188;-63
2022/04/09 02:39:06;;;;;;;108.70;49.70;;;;;;;;;;5050993;28;20683;-63
2022/04/09 02:41:32;;;;;;;100.57;47.63;;;;;;;;;;5050711;28;20406;-63
2022/04/09 02:43:59;;;;;;;96.10;44.20;;;;;;;;;;5050796;28;20220;-63
2022/04/09 02:46:25;;;;;;;98.28;46.85;;;;;;;;;;5051446;28;20210;-63
2022/04/09 02:48:51;;;;;;;103.05;46.65;;;;;;;;;;5054837;28;20191;-62
2022/04/09 02:51:17;;;;;;;102.68;47.35;;;;;;;;;;5054471;28;20643;-62
2022/04/09 02:53:43;;;;;;;105.05;47.88;;;;;;;;;;5054609;28;20230;-63
2022/04/09 02:56:09;;;;;;;105.32;47.92;;;;;;;;;;5054554;28;20180;-63
2022/04/09 02:58:35;;;;;;;110.27;49.67;;;;;;;;;;5054553;28;20586;-62
2022/04/09 03:01:01;;;;;;;107.33;48.10;;;;;;;;;;5054282;28;20781;-63
2022/04/09 03:03:27;;;;;;;104.67;45.87;;;;;;;;;;5054347;28;20406;-63
2022/04/09 03:05:53;;;;;;;101.07;46.17;;;;;;;;;;5054475;28;20921;-62
2022/04/09 03:08:19;;;;;;;97.90;45.57;;;;;;;;;;5054375;28;20449;-63
2022/04/09 03:10:45;;;;;;;103.80;46.43;;;;;;;;;;5054024;28;20509;-62
2022/04/09 03:13:11;;;;;;;106.53;46.17;;;;;;;;;;5054434;28;20778;-62
2022/04/09 03:15:37;;;;;;;108.35;46.80;;;;;;;;;;5054444;28;20433;-63
2022/04/09 03:18:03;;;;;;;110.85;48.85;;;;;;;;;;5054320;28;20223;-63
2022/04/09 03:20:29;;;;;;;109.57;47.83;;;;;;;;;;5053931;28;20207;-63
2022/04/09 03:22:55;;;;;;;98.17;45.63;;;;;;;;;;5054089;28;20213;-63
2022/04/09 03:25:21;;;;;;;94.33;44.93;;;;;;;;;;5053821;28;20681;-63
2022/04/09 03:27:47;;;;;;;92.45;45.15;;;;;;;;;;5054137;28;20404;-62
2022/04/09 03:30:13;;;;;;;92.80;44.53;;;;;;;;;;5053755;28;20234;-63
2022/04/09 03:32:40;;;;;;;96.85;47.00;;;;;;;;;;5053977;28;20168;-63
2022/04/09 03:35:07;;;;;;;94.43;46.05;;;;;;;;;;5054080;28;20688;-63
2022/04/09 03:37:36;;;;;;;85.15;46.03;;;;;;;;;;5053771;28;20179;-63
2022/04/09 03:40:04;;;;;;;84.13;44.63;;;;;;;;;;5053438;28;20257;-63
2022/04/09 03:42:30;;;;;;;93.57;46.08;;;;;;;;;;5053626;28;20176;-62
2022/04/09 03:44:56;;;;;;;94.93;46.83;;;;;;;;;;5053859;28;20595;-62
2022/04/09 03:47:22;;;;;;;91.93;47.40;;;;;;;;;;5053695;28;20164;-62
2022/04/09 03:49:48;;;;;;;85.83;44.57;;;;;;;;;;5053585;28;20407;-62
2022/04/09 03:52:14;;;;;;;77.50;42.05;;;;;;;;;;5053291;28;20419;-62
2022/04/09 03:54:41;;;;;;;79.03;43.22;;;;;;;;;;5053107;28;20196;-62
2022/04/09 03:57:09;;;;;;;90.70;46.90;;;;;;;;;;5053116;28;20598;-63
2022/04/09 03:59:35;;;;;;;92.28;47.25;;;;;;;;;;5053085;28;20176;-62
2022/04/09 04:02:01;;;;;;;94.13;46.83;;;;;;;;;;5052924;28;20173;-62
2022/04/09 04:04:26;;;;;;;90.33;45.73;;;;;;;;;;5053195;28;20238;-62
2022/04/09 04:06:52;;;;;;;95.13;47.17;;;;;;;;;;5053264;28;20403;-62
2022/04/09 04:09:18;;;;;;;88.93;46.97;;;;;;;;;;5053240;28;20792;-62
2022/04/09 04:11:45;;;;;;;86.32;45.58;;;;;;;;;;5052847;28;20957;-63
2022/04/09 04:14:11;;;;;;;87.72;46.03;;;;;;;;;;5053081;28;20272;-63
2022/04/09 04:16:37;;;;;;;88.50;45.60;;;;;;;;;;5053123;28;20216;-63
2022/04/09 04:19:03;;;;;;;90.50;46.27;;;;;;;;;;5053022;28;20259;-62
2022/04/09 04:21:29;;;;;;;91.90;47.17;;;;;;;;;;5052729;28;20882;-62
2022/04/09 04:23:55;;;;;;;87.03;47.15;;;;;;;;;;5052804;28;20484;-63
2022/04/09 04:26:21;;;;;;;88.40;46.30;;;;;;;;;;5052915;28;20180;-63
2022/04/09 04:28:48;;;;;;;79.82;44.25;;;;;;;;;;5052597;28;20458;-63
2022/04/09 04:31:17;;;;;;;79.57;43.25;;;;;;;;;;5052559;28;20168;-62
2022/04/09 04:33:44;;;;;;;86.75;49.85;;;;;;;;;;5052586;28;20286;-62
2022/04/09 04:36:10;;;;;;;85.28;43.80;;;;;;;;;;5052682;28;20167;-62
2022/04/09 04:38:36;;;;;;;82.00;42.90;;;;;;;;;;5052657;28;20635;-62
2022/04/09 04:41:04;;;;;;;87.13;46.63;;;;;;;;;;5052150;28;20196;-62
2022/04/09 04:43:30;;;;;;;81.72;43.80;;;;;;;;;;5052348;28;20430;-62
2022/04/09 04:45:56;;;;;;;81.97;43.08;;;;;;;;;;5052388;28;20176;-62
2022/04/09 04:48:22;;;;;;;86.50;44.87;;;;;;;;;;5052523;28;20663;-61
2022/04/09 04:50:48;;;;;;;85.87;44.33;;;;;;;;;;5051914;28;20416;-62
2022/04/09 04:53:14;;;;;;;83.60;43.00;;;;;;;;;;5052323;28;20405;-62
2022/04/09 04:55:40;;;;;;;85.75;45.95;;;;;;;;;;5052076;28;20183;-62
2022/04/09 04:58:07;;;;;;;80.80;43.22;;;;;;;;;;5052133;28;20192;-62
2022/04/09 05:00:33;;;;;;;88.70;46.10;;;;;;;;;;5051626;28;20183;-62
2022/04/09 05:02:59;;;;;;;83.55;42.80;;;;;;;;;;5050896;28;20180;-62
2022/04/09 05:05:25;;;;;;;84.20;44.72;;;;;;;;;;5052020;28;20583;-62
2022/04/09 05:07:52;;;;;;;99.50;49.88;;;;;;;;;;5051844;28;20180;-62
2022/04/09 05:10:21;;;;;;;103.97;50.92;;;;;;;;;;5051322;28;20183;-62
2022/04/09 05:12:47;;;;;;;100.57;46.00;;;;;;;;;;5052168;28;20544;-62
2022/04/09 05:15:14;;;;;;;109.53;50.53;;;;;;;;;;5051931;28;20196;-62
2022/04/09 05:17:40;;;;;;;106.13;49.72;;;;;;;;;;5051864;28;20263;-62
2022/04/09 05:20:08;;;;;;;107.40;49.60;;;;;;;;;;5051641;28;20643;-62
2022/04/09 05:22:36;;;;;;;98.78;46.35;;;;;;;;;;5051825;28;20191;-62
2022/04/09 05:25:02;;;;;;;111.80;49.55;;;;;;;;;;5051650;28;20206;-62
2022/04/09 05:27:28;;;;;;;107.20;47.87;;;;;;;;;;5051867;28;20171;-62
2022/04/09 05:29:54;;;;;;;109.50;53.33;;;;;;;;;;5048500;28;20407;-61
2022/04/09 05:32:20;;;;;;;104.05;47.22;;;;;;;;;;5031596;28;20404;-60
2022/04/09 05:34:46;;;;;;;107.30;49.20;;;;;;;;;;5031603;28;20552;-62
2022/04/09 05:37:12;;;;;;;103.10;49.70;;;;;;;;;;5031528;28;20185;-62
2022/04/09 05:39:38;;;;;;;104.72;49.10;;;;;;;;;;5031558;28;20775;-62
2022/04/09 05:42:05;;;;;;;103.63;47.43;;;;;;;;;;5031513;28;20177;-62
2022/04/09 05:44:31;;;;;;;103.82;47.80;;;;;;;;;;5031347;28;20463;-62
2022/04/09 05:46:57;;;;;;;101.45;46.47;;;;;;;;;;5031748;28;20185;-62
2022/04/09 05:49:23;;;;;;;99.85;47.35;;;;;;;;;;5031601;28;20662;-62
2022/04/09 05:51:49;;;;;;;102.30;49.03;;;;;;;;;;5031092;28;20165;-62
2022/04/09 05:54:15;;;;;;;103.20;48.67;;;;;;;;;;5031456;28;20432;-62
2022/04/09 05:56:41;;;;;;;101.17;48.17;;;;;;;;;;5031581;28;20188;-62
2022/04/09 05:59:07;;;;;;;103.82;47.60;;;;;;;;;;5031889;28;20931;-62
2022/04/09 06:01:34;;;;;;;82.53;45.60;;;;;;;;;;5037759;28;20184;-62
2022/04/09 06:04:01;;;;;;;100.38;48.88;;;;;;;;;;5050078;28;20287;-61
2022/04/09 06:06:27;;;;;;;106.43;51.00;;;;;;;;;;5051086;28;20183;-62
2022/04/09 06:08:53;;;;;;;105.07;50.53;;;;;;;;;;5050458;28;20176;-62
2022/04/09 06:11:19;;;;;;;102.73;48.13;;;;;;;;;;5050348;28;20405;-61
2022/04/09 06:13:45;;;;;;;101.40;48.45;;;;;;;;;;5051324;28;20441;-61
2022/04/09 06:16:11;;;;;;;107.27;48.80;;;;;;;;;;5051229;28;20176;-61
2022/04/09 06:18:38;;;;;;;108.95;50.83;;;;;;;;;;5050939;28;20422;-61
2022/04/09 06:21:04;;;;;;;105.60;49.10;;;;;;;;;;5052596;28;20679;-62
2022/04/09 06:23:30;;;;;;;105.20;51.50;;;;;;;;;;5053246;28;20180;-61
2022/04/09 06:25:56;;;;;;;106.77;48.57;;;;;;;;;;5054687;28;20662;-62
2022/04/09 06:28:22;;;;;;;103.17;48.43;;;;;;;;;;5054748;28;20457;-61
2022/04/09 06:30:48;;;;;;;105.97;48.87;;;;;;;;;;5050798;28;20476;-62
2022/04/09 06:33:14;;;;;;;102.57;46.70;;;;;;;;;;5047663;28;20422;-61
2022/04/09 06:35:40;;;;;;;111.80;51.40;;;;;;;;;;5051249;28;20439;-62
2022/04/09 06:38:06;;;;;;;107.77;48.40;;;;;;;;;;5050326;28;20457;-62
2022/04/09 06:40:32;;;;;;;104.97;48.13;;;;;;;;;;5051906;28;20418;-62
2022/04/09 06:42:58;;;;;;;110.23;51.67;;;;;;;;;;5054300;28;20195;-62
2022/04/09 06:45:24;;;;;;;110.63;48.90;;;;;;;;;;5055434;28;20906;-62
2022/04/09 06:47:51;;;;;;;116.87;50.90;;;;;;;;;;5054571;28;20251;-62
2022/04/09 06:50:17;;;;;;;120.05;59.13;;;;;;;;;;5052522;28;20458;-62
2022/04/09 06:52:43;;;;;;;119.00;53.67;;;;;;;;;;5052310;28;20650;-62
2022/04/09 06:55:09;;;;;;;116.63;51.47;;;;;;;;;;5046675;28;20223;-62
2022/04/09 06:57:38;;;;;;;121.53;52.67;;;;;;;;;;5050392;28;20431;-62
2022/04/09 07:00:05;;;;;;;121.80;55.17;;;;;;;;;;5047720;28;20263;-62
2022/04/09 07:02:31;;;;;;;118.35;52.95;;;;;;;;;;5047139;28;20249;-62
2022/04/09 07:04:57;;;;;;;114.90;52.60;;;;;;;;;;5053557;28;20213;-62
2022/04/09 07:07:24;;;;;;;116.23;53.07;;;;;;;;;;5052694;28;20411;-60
2022/04/09 07:09:50;;;;;;;121.20;54.40;;;;;;;;;;5054503;28;20406;-61
2022/04/09 07:12:16;;;;;;;125.68;54.35;;;;;;;;;;5054007;28;20176;-62
2022/04/09 07:14:43;;;;;;;124.90;54.28;;;;;;;;;;5050152;28;20254;-62
2022/04/09 07:17:09;;;;;;;127.68;53.88;;;;;;;;;;5053137;28;20762;-62
2022/04/09 07:19:38;;;;;;;127.07;57.42;;;;;;;;;;5046696;28;20709;-62
2022/04/09 07:22:05;;;;;;;127.18;58.63;;;;;;;;;;5052633;28;20670;-58
2022/04/09 07:24:30;;;;;;;129.30;55.20;;;;;;;;;;5053706;28;20681;-62
2022/04/09 07:26:56;;;;;;;128.50;56.33;;;;;;;;;;5052307;28;20183;-61
2022/04/09 07:29:22;;;;;;;131.55;55.50;;;;;;;;;;5053363;28;20446;-61
2022/04/09 07:31:48;;;;;;;135.87;56.60;;;;;;;;;;5053243;28;20204;-60
2022/04/09 07:34:14;;;;;;;135.10;58.70;;;;;;;;;;5053006;28;20798;-61
2022/04/09 07:36:46;;;;;;;128.17;54.60;;;;;;;;;;5053901;28;20458;-61
2022/04/09 07:39:12;;;;;;;138.98;60.05;;;;;;;;;;5052955;28;20485;-61
2022/04/09 07:41:38;;;;;;;134.47;54.20;;;;;;;;;;5049812;28;20282;-61
2022/04/09 07:44:04;;;;;;;132.35;55.45;;;;;;;;;;5053012;28;20463;-61
2022/04/09 07:46:30;;;;;;;135.07;58.47;;;;;;;;;;5053440;28;20173;-61
2022/04/09 07:48:56;;;;;;;139.47;59.40;;;;;;;;;;5048629;28;20184;-61
2022/04/09 07:51:22;;;;;;;139.75;60.17;;;;;;;;;;5049738;28;20415;-61
2022/04/09 07:53:48;;;;;;;138.17;59.00;;;;;;;;;;5053247;28;20206;-61
2022/04/09 07:56:14;;;;;;;136.00;58.87;;;;;;;;;;5053291;28;20397;-61
2022/04/09 07:58:42;;;;;;;138.40;61.30;;;;;;;;;;5051800;28;20426;-61
2022/04/09 08:01:08;;;;;;;139.60;61.83;;;;;;;;;;5052924;28;20515;-61
2022/04/09 08:03:34;;;;;;;141.93;62.27;;;;;;;;;;5049288;28;20265;-61
2022/04/09 08:06:00;;;;;;;143.40;61.90;;;;;;;;;;5051535;28;20414;-61
2022/04/09 08:08:26;;;;;;;137.60;59.90;;;;;;;;;;5052961;28;20902;-61
2022/04/09 08:10:52;;;;;;;144.90;65.17;;;;;;;;;;5051131;28;20420;-61
2022/04/09 08:13:18;;;;;;;140.63;65.00;;;;;;;;;;5052765;28;20401;-61
2022/04/09 08:15:44;;;;;;;145.85;66.50;;;;;;;;;;5051193;28;20179;-61
2022/04/09 08:18:11;;;;;;;133.23;58.35;;;;;;;;;;5052565;28;20258;-61
2022/04/09 08:20:37;;;;;;;140.35;60.97;;;;;;;;;;5043120;28;20183;-61
2022/04/09 08:23:04;;;;;;;134.50;59.83;;;;;;;;;;5040971;28;20237;-62
2022/04/09 08:25:30;;;;;;;136.30;59.85;;;;;;;;;;5043144;28;20643;-62
2022/04/09 08:27:56;;;;;;;137.93;61.47;;;;;;;;;;5051676;28;20253;-62
2022/04/09 08:30:23;;;;;;;137.35;64.75;;;;;;;;;;5051580;28;20565;-62
2022/04/09 08:32:53;;;;;;;134.65;59.25;;;;;;;;;;5052593;28;20649;-62
2022/04/09 08:35:20;;;;;;;131.73;58.58;;;;;;;;;;5052529;28;20257;-62
2022/04/09 08:37:54;;;;;;;133.77;58.80;;;;;;;;;;5052388;28;20648;-61
2022/04/09 08:40:23;;;;;;;139.32;63.80;;;;;;;;;;5051740;28;20197;-62
2022/04/09 08:42:49;;;;;;;136.70;60.15;;;;;;;;;;5052421;28;20188;-62
2022/04/09 08:45:16;;;;;;;133.38;57.92;;;;;;;;;;5051406;28;20586;-61
2022/04/09 08:47:43;;;;;;;135.77;58.17;;;;;;;;;;5052373;28;20179;-62
2022/04/09 08:50:12;;;;;;;133.27;60.00;;;;;;;;;;5051566;28;20176;-62
2022/04/09 08:52:40;;;;;;;131.00;58.00;;;;;;;;;;5052198;28;20662;-62
2022/04/09 08:55:06;;;;;;;127.15;58.83;;;;;;;;;;5051992;28;20233;-62
2022/04/09 08:57:34;;;;;;;126.45;57.72;;;;;;;;;;5050434;28;20637;-62
2022/04/09 09:00:03;;;;;;;130.63;59.67;;;;;;;;;;5031899;28;20186;-62
2022/04/09 09:02:31;;;;;;;133.18;58.90;;;;;;;;;;5032853;28;20219;-62
2022/04/09 09:04:57;;;;;;;132.40;59.42;;;;;;;;;;5043635;28;20292;-62
2022/04/09 09:07:24;;;;;;;132.53;61.67;;;;;;;;;;5043860;28;20254;-61
2022/04/09 09:09:53;;;;;;;132.70;60.92;;;;;;;;;;5042553;28;20420;-62
2022/04/09 09:12:29;;;;;;;141.73;64.18;;;;;;;;;;5043598;28;20263;-62
2022/04/09 09:14:57;;;;;;;145.95;69.78;;;;;;;;;;5041177;28;20203;-61
2022/04/09 09:17:26;;;;;;;132.70;69.03;;;;;;;;;;5042398;28;20590;-59
2022/04/09 09:19:52;;;;;;;145.70;76.63;;;;;;;;;;5040944;28;20183;-60
2022/04/09 09:22:19;;;;;;;153.27;84.87;;;;;;;;;;5038312;28;20264;-62
2022/04/09 09:25:01;;;;;;;166.68;103.68;;;;;;;;;;5039139;28;21062;-61
2022/04/09 09:27:28;;;;;;;169.10;119.13;;;;;;;;;;5044052;28;20263;-60
2022/04/09 09:29:55;;;;;;;179.30;145.20;;;;;;;;;;5039360;28;20234;-61
2022/04/09 09:32:29;;;;;;;202.38;174.05;;;;;;;;;;5039726;28;20213;-62
2022/04/09 09:35:01;;;;;;;221.55;199.25;;;;;;;;;;5037493;28;20283;-62
2022/04/09 09:37:28;;;;;;;215.43;192.82;;;;;;;;;;5039310;28;20185;-62
2022/04/09 09:39:54;;;;;;;210.73;188.48;;;;;;;;;;5045353;28;20176;-63
2022/04/09 09:42:21;;;;;;;173.63;155.30;;;;;;;;;;5040773;28;20275;-61
2022/04/09 09:44:47;;;;;;;149.93;133.68;;;;;;;;;;5035956;28;20658;-62
2022/04/09 09:47:17;;;;;;;161.15;129.27;;;;;;;;;;5040455;28;20186;-61
2022/04/09 09:49:53;;;;;;;167.88;118.15;;;;;;;;;;5040612;28;20889;-62
2022/04/09 09:52:24;;;;;;;146.02;107.25;;;;;;;;;;5037045;28;20191;-59
2022/04/09 09:55:10;;;;;;;148.68;102.00;;;;;;;;;;5040269;28;20737;-62
2022/04/09 09:57:38;;;;;;;160.43;99.32;;;;;;;;;;5037997;28;20603;-61
2022/04/09 10:00:06;;;;;;;153.15;100.50;;;;;;;;;;5035456;28;20188;-62
2022/04/09 10:02:32;;;;;;;160.23;99.88;;;;;;;;;;5036640;28;20176;-62
2022/04/09 10:04:58;;;;;;;172.30;113.85;;;;;;;;;;5024029;28;20280;-63
2022/04/09 10:07:25;;;;;;;193.07;128.63;;;;;;;;;;5033935;28;20169;-63
2022/04/09 10:09:53;;;;;;;178.27;141.45;;;;;;;;;;5038868;28;20251;-62
2022/04/09 10:12:23;;;;;;;197.38;160.13;;;;;;;;;;5045579;28;20225;-62
2022/04/09 10:14:50;;;;;;;202.27;168.05;;;;;;;;;;5034373;28;20572;-62
2022/04/09 10:17:18;;;;;;;201.57;171.32;;;;;;;;;;5044690;28;20177;-62
2022/04/09 10:19:44;;;;;;;209.00;183.38;;;;;;;;;;5039652;28;20183;-63
2022/04/09 10:22:11;;;;;;;211.93;181.65;;;;;;;;;;5043510;28;20199;-62
2022/04/09 10:24:39;;;;;;;179.32;156.95;;;;;;;;;;5040720;28;20196;-62
2022/04/09 10:27:07;;;;;;;171.48;130.05;;;;;;;;;;5042420;28;20204;-62
2022/04/09 10:29:49;;;;;;;171.57;121.05;;;;;;;;;;5039551;28;20180;-62
2022/04/09 10:32:34;;;;;;;177.80;124.47;;;;;;;;;;5038952;28;20667;-62
2022/04/09 10:35:00;;;;;;;169.80;128.30;;;;;;;;;;5042611;28;20218;-62
2022/04/09 10:37:26;;;;;;;187.07;153.40;;;;;;;;;;5040280;28;20184;-61
2022/04/09 10:39:53;;;;;;;206.50;184.10;;;;;;;;;;5040822;28;20550;-63
2022/04/09 10:42:38;;;;;;;233.67;210.37;;;;;;;;;;5037753;28;20506;-63
2022/04/09 10:45:05;;;;;;;253.20;230.40;;;;;;;;;;5042191;28;20471;-62
2022/04/09 10:47:51;;;;;;;249.13;227.63;;;;;;;;;;5040227;28;20428;-63
2022/04/09 10:50:17;;;;;;;240.47;217.70;;;;;;;;;;5039756;28;20410;-62
2022/04/09 10:52:48;;;;;;;210.43;189.48;;;;;;;;;;5043637;28;20406;-62
2022/04/09 10:55:15;;;;;;;211.33;190.27;;;;;;;;;;5042142;28;20207;-63
2022/04/09 10:57:48;;;;;;;218.43;196.98;;;;;;;;;;5043794;28;20479;-63
2022/04/09 11:00:24;;;;;;;200.65;180.75;;;;;;;;;;5030404;28;20168;-62
2022/04/09 11:03:06;;;;;;;187.32;167.30;;;;;;;;;;5032885;28;20620;-62
2022/04/09 11:05:33;;;;;;;200.70;179.60;;;;;;;;;;5039800;28;20262;-62
2022/04/09 11:08:09;;;;;;;249.20;225.95;;;;;;;;;;5044105;28;20517;-63
2022/04/09 11:10:35;;;;;;;276.47;252.77;;;;;;;;;;5043659;28;20682;-63
2022/04/09 11:13:01;;;;;;;256.03;233.27;;;;;;;;;;5042568;28;20895;-63
2022/04/09 11:15:28;;;;;;;201.88;181.68;;;;;;;;;;5042286;28;20436;-62
2022/04/09 11:18:00;;;;;;;187.02;166.75;;;;;;;;;;5044089;28;20216;-63
2022/04/09 11:20:30;;;;;;;196.10;175.77;;;;;;;;;;5044120;28;20752;-63
2022/04/09 11:22:56;;;;;;;191.20;171.70;;;;;;;;;;5043747;28;20201;-63
2022/04/09 11:25:23;;;;;;;179.95;160.90;;;;;;;;;;5042761;28;20211;-62
2022/04/09 11:27:50;;;;;;;162.25;143.85;;;;;;;;;;5041881;28;20168;-62
2022/04/09 11:30:16;;;;;;;165.88;135.90;;;;;;;;;;5043529;28;20183;-62
2022/04/09 11:32:42;;;;;;;174.07;131.40;;;;;;;;;;5042614;28;20536;-63
2022/04/09 11:35:12;;;;;;;181.30;145.82;;;;;;;;;;5041879;28;20195;-63
2022/04/09 11:37:39;;;;;;;189.27;168.68;;;;;;;;;;5041660;28;20180;-63
2022/04/09 11:40:07;;;;;;;226.67;203.87;;;;;;;;;;5042078;28;20180;-62
2022/04/09 11:42:46;;;;;;;245.87;222.87;;;;;;;;;;5043168;28;20434;-62
2022/04/09 11:45:19;;;;;;;235.80;214.43;;;;;;;;;;5043232;28;20461;-62
2022/04/09 11:47:44;;;;;;;236.17;215.47;;;;;;;;;;5042500;28;20501;-62
2022/04/09 11:50:15;;;;;;;256.40;234.00;;;;;;;;;;5041113;28;20449;-63
2022/04/09 11:52:41;;;;;;;266.00;245.23;;;;;;;;;;5041870;28;20899;-62
2022/04/09 11:55:10;;;;;;;258.87;237.50;;;;;;;;;;5041737;28;20508;-61
2022/04/09 11:57:37;;;;;;;236.23;215.57;;;;;;;;;;5043065;28;20411;-62
2022/04/09 12:00:04;;;;;;;216.37;195.47;;;;;;;;;;5041945;28;20410;-62
2022/04/09 12:02:30;;;;;;;197.80;177.10;;;;;;;;;;5040904;28;20824;-62
2022/04/09 12:04:57;;;;;;;176.30;158.00;;;;;;;;;;5041938;28;20210;-62
2022/04/09 12:07:28;;;;;;;171.25;153.20;;;;;;;;;;5041116;28;20179;-62
2022/04/09 12:09:54;;;;;;;161.70;143.05;;;;;;;;;;5041083;28;20542;-62
2022/04/09 12:12:20;;;;;;;152.38;133.25;;;;;;;;;;5041166;28;20174;-62
2022/04/09 12:14:56;;;;;;;158.82;123.13;;;;;;;;;;5040871;28;20203;-62
2022/04/09 12:17:23;;;;;;;168.93;120.35;;;;;;;;;;5041225;28;20548;-62
2022/04/09 12:19:50;;;;;;;155.50;120.18;;;;;;;;;;5042321;28;20217;-61
2022/04/09 12:22:19;;;;;;;151.07;118.13;;;;;;;;;;5044370;28;20233;-62
2022/04/09 12:24:46;;;;;;;146.73;110.65;;;;;;;;;;5045183;28;20216;-62
2022/04/09 12:27:12;;;;;;;144.65;109.70;;;;;;;;;;5040716;28;20168;-62
2022/04/09 12:29:46;;;;;;;142.30;105.13;;;;;;;;;;5048889;28;20263;-62
2022/04/09 12:32:21;;;;;;;152.00;117.22;;;;;;;;;;5052125;28;20398;-62
2022/04/09 12:34:54;;;;;;;148.27;105.50;;;;;;;;;;5052757;28;20191;-62
2022/04/09 12:37:20;;;;;;;145.95;105.65;;;;;;;;;;5052776;28;20555;-62
2022/04/09 12:39:46;;;;;;;142.10;101.57;;;;;;;;;;5052758;28;20175;-62
2022/04/09 12:42:12;;;;;;;150.00;101.80;;;;;;;;;;5052124;28;20403;-61
2022/04/09 12:44:38;;;;;;;142.40;101.43;;;;;;;;;;5042582;28;20208;-62
2022/04/09 12:47:05;;;;;;;160.40;105.67;;;;;;;;;;5038351;22;21029;-60
2022/04/09 12:49:33;;;;;;;158.82;111.10;;;;;;;;;;5007879;28;20508;-60
2022/04/09 12:51:59;;;;;;;157.65;109.32;;;;;;;;;;5010114;28;20169;-61
2022/04/09 12:54:30;;;;;;;161.02;110.25;;;;;;;;;;5008933;28;20190;-60
2022/04/09 12:56:57;;;;;;;153.60;104.80;;;;;;;;;;5002223;28;20214;-61
2022/04/09 12:59:23;;;;;;;152.80;106.35;;;;;;;;;;5002498;28;20177;-60
2022/04/09 13:01:50;;;;;;;147.40;99.32;;;;;;;;;;4999108;28;20240;-61
2022/04/09 13:04:16;;;;;;;148.60;99.53;;;;;;;;;;4985757;28;20206;-61
2022/04/09 13:06:42;;;;;;;153.95;102.00;;;;;;;;;;5001463;28;20657;-60
2022/04/09 13:09:09;;;;;;;145.50;95.75;;;;;;;;;;4999672;28;20182;-61
2022/04/09 13:11:35;;;;;;;141.38;96.85;;;;;;;;;;5002743;28;20177;-61
2022/04/09 13:14:01;;;;;;;142.87;96.43;;;;;;;;;;5000739;28;20257;-61
2022/04/09 13:16:27;;;;;;;148.27;97.50;;;;;;;;;;5000383;28;20429;-61
2022/04/09 13:18:53;;;;;;;144.40;96.67;;;;;;;;;;5001140;28;20182;-61
2022/04/09 13:21:19;;;;;;;141.13;95.32;;;;;;;;;;5002701;28;20421;-61
2022/04/09 13:23:45;;;;;;;151.40;94.85;;;;;;;;;;4988729;28;20683;-59
2022/04/09 13:26:11;;;;;;;144.23;92.63;;;;;;;;;;4990844;28;20202;-62
2022/04/09 13:28:37;;;;;;;142.20;92.40;;;;;;;;;;4998775;28;20208;-61
2022/04/09 13:31:03;;;;;;;142.50;94.33;;;;;;;;;;4996915;28;20518;-60
2022/04/09 13:33:29;;;;;;;140.45;92.90;;;;;;;;;;5003189;28;20412;-61
2022/04/09 13:35:55;;;;;;;136.47;94.30;;;;;;;;;;5000072;28;20194;-61
2022/04/09 13:38:22;;;;;;;134.30;95.47;;;;;;;;;;5000652;28;20404;-60
2022/04/09 13:40:48;;;;;;;137.68;98.65;;;;;;;;;;4996045;28;20708;-63
2022/04/09 13:43:15;;;;;;;135.57;102.78;;;;;;;;;;4999736;28;20209;-59
2022/04/09 13:45:42;;;;;;;150.60;101.57;;;;;;;;;;4996150;28;20284;-60
2022/04/09 13:48:08;;;;;;;138.90;96.47;;;;;;;;;;4992488;28;20183;-61
2022/04/09 13:50:34;;;;;;;135.15;94.60;;;;;;;;;;4990750;28;20179;-62
2022/04/09 13:53:00;;;;;;;147.30;91.72;;;;;;;;;;4993663;28;20177;-59
2022/04/09 13:55:26;;;;;;;140.60;91.20;;;;;;;;;;4995947;28;20557;-60
2022/04/09 13:57:52;;;;;;;143.52;92.68;;;;;;;;;;5002821;28;20417;-59
2022/04/09 14:00:19;;;;;;;151.40;99.23;;;;;;;;;;5002554;28;20243;-57
2022/04/09 14:02:45;;;;;;;147.18;92.28;;;;;;;;;;4996915;28;20413;-58